createdAt,value
2017-07-10T00:00:44.201Z,17.10
2017-07-10T00:03:12.163Z,15.90
2017-07-10T00:05:39.700Z,12.50
2017-07-10T00:08:07.262Z,12.20
2017-07-10T00:10:34.786Z,13.90
2017-07-10T00:13:02.305Z,11.47
2017-07-10T00:15:29.868Z,11.60
2017-07-10T00:17:57.440Z,10.10
2017-07-10T00:20:24.948Z,9.77
2017-07-10T00:22:52.472Z,9.47
2017-07-10T00:25:20.103Z,9.40
2017-07-10T00:27:47.617Z,9.47
2017-07-10T00:30:15.128Z,9.70
2017-07-10T00:32:42.943Z,9.03
2017-07-10T00:35:10.487Z,11.23
2017-07-10T00:37:38.000Z,9.73
2017-07-10T00:40:05.739Z,10.90
2017-07-10T00:42:33.248Z,14.13
2017-07-10T00:45:00.803Z,12.03
2017-07-10T00:47:28.616Z,9.87
2017-07-10T00:49:56.132Z,9.07
2017-07-10T00:52:23.636Z,9.90
2017-07-10T00:54:51.223Z,13.00
2017-07-10T00:57:18.733Z,12.40
2017-07-10T00:59:46.243Z,12.80
2017-07-10T01:02:13.833Z,13.47
2017-07-10T01:04:41.880Z,13.23
2017-07-10T01:07:10.166Z,10.87
2017-07-10T01:09:37.821Z,9.60
2017-07-10T01:12:05.865Z,9.57
2017-07-10T01:14:33.443Z,9.57
2017-07-10T01:17:01.015Z,10.50
2017-07-10T01:19:28.537Z,10.00
2017-07-10T01:21:56.159Z,11.87
2017-07-10T01:24:23.720Z,12.17
2017-07-10T01:26:51.274Z,12.03
2017-07-10T01:29:18.890Z,13.47
2017-07-10T01:31:46.771Z,13.70
2017-07-10T01:34:14.287Z,13.27
2017-07-10T01:36:41.818Z,12.73
2017-07-10T01:39:09.380Z,14.10
2017-07-10T01:41:36.952Z,15.80
2017-07-10T01:44:04.502Z,16.03
2017-07-10T01:46:32.344Z,15.30
2017-07-10T01:49:00.635Z,14.17
2017-07-10T01:51:28.156Z,12.80
2017-07-10T01:53:55.667Z,14.70
2017-07-10T01:56:23.477Z,14.80
2017-07-10T01:58:50.999Z,15.40
2017-07-10T02:01:18.671Z,15.17
2017-07-10T02:03:46.496Z,15.47
2017-07-10T02:06:14.272Z,15.77
2017-07-10T02:08:42.104Z,14.70
2017-07-10T02:11:10.168Z,14.30
2017-07-10T02:13:37.887Z,15.73
2017-07-10T02:16:05.573Z,15.37
2017-07-10T02:18:33.328Z,15.20
2017-07-10T02:21:00.963Z,14.93
2017-07-10T02:23:28.637Z,15.60
2017-07-10T02:25:56.363Z,14.77
2017-07-10T02:28:24.045Z,14.63
2017-07-10T02:30:51.691Z,13.40
2017-07-10T02:33:19.542Z,16.33
2017-07-10T02:35:47.154Z,14.30
2017-07-10T02:38:14.771Z,13.90
2017-07-10T02:40:42.331Z,13.73
2017-07-10T02:43:10.107Z,13.07
2017-07-10T02:45:37.634Z,17.03
2017-07-10T02:48:05.603Z,14.87
2017-07-10T02:50:33.202Z,15.10
2017-07-10T02:53:00.711Z,16.10
2017-07-10T02:55:28.553Z,18.07
2017-07-10T02:57:56.161Z,14.53
2017-07-10T03:00:23.837Z,15.07
2017-07-10T03:02:51.509Z,16.33
2017-07-10T03:05:19.036Z,15.60
2017-07-10T03:07:46.564Z,16.00
2017-07-10T03:10:14.248Z,17.17
2017-07-10T03:12:41.759Z,15.27
2017-07-10T03:15:09.276Z,15.27
2017-07-10T03:17:37.163Z,16.27
2017-07-10T03:20:04.777Z,16.23
2017-07-10T03:22:32.299Z,15.43
2017-07-10T03:25:00.135Z,15.07
2017-07-10T03:27:27.647Z,14.10
2017-07-10T03:29:54.956Z,17.57
2017-07-10T03:32:22.778Z,15.63
2017-07-10T03:34:50.333Z,13.80
2017-07-10T03:37:17.864Z,13.50
2017-07-10T03:39:45.437Z,14.53
2017-07-10T03:42:12.948Z,16.63
2017-07-10T03:44:40.530Z,15.67
2017-07-10T03:47:08.344Z,14.30
2017-07-10T03:49:35.922Z,15.90
2017-07-10T03:52:03.434Z,13.37
2017-07-10T03:54:31.000Z,14.03
2017-07-10T03:56:58.526Z,15.47
2017-07-10T03:59:26.133Z,14.90
2017-07-10T04:01:54.032Z,13.90
2017-07-10T04:04:21.555Z,11.63
2017-07-10T04:06:49.073Z,11.73
2017-07-10T04:09:16.879Z,9.80
2017-07-10T04:11:44.416Z,11.07
2017-07-10T04:14:11.921Z,9.83
2017-07-10T04:16:39.726Z,10.20
2017-07-10T04:19:07.264Z,10.37
2017-07-10T04:21:34.854Z,9.93
2017-07-10T04:24:02.682Z,7.67
2017-07-10T04:26:30.272Z,9.20
2017-07-10T04:28:57.802Z,7.73
2017-07-10T04:31:25.644Z,9.33
2017-07-10T04:33:53.164Z,10.23
2017-07-10T04:36:20.682Z,11.20
2017-07-10T04:38:48.287Z,11.30
2017-07-10T04:41:15.833Z,11.40
2017-07-10T04:43:43.351Z,11.23
2017-07-10T04:46:10.919Z,11.37
2017-07-10T04:48:38.633Z,10.47
2017-07-10T04:51:06.148Z,12.00
2017-07-10T04:53:34.045Z,10.10
2017-07-10T04:56:01.560Z,10.73
2017-07-10T04:58:29.121Z,10.10
2017-07-10T05:00:56.695Z,10.27
2017-07-10T05:03:24.203Z,10.23
2017-07-10T05:05:51.716Z,10.43
2017-07-10T05:08:19.280Z,9.70
2017-07-10T05:10:46.804Z,8.80
2017-07-10T05:13:14.345Z,8.70
2017-07-10T05:15:42.184Z,9.17
2017-07-10T05:18:09.836Z,11.40
2017-07-10T05:20:37.344Z,9.07
2017-07-10T05:23:04.906Z,8.00
2017-07-10T05:25:33.479Z,8.10
2017-07-10T05:28:01.240Z,8.20
2017-07-10T05:30:28.800Z,7.73
2017-07-10T05:32:56.072Z,8.20
2017-07-10T05:35:23.579Z,7.63
2017-07-10T05:37:51.140Z,6.93
2017-07-10T05:40:18.663Z,7.70
2017-07-10T05:42:46.168Z,7.87
2017-07-10T05:45:13.888Z,9.43
2017-07-10T05:47:41.509Z,7.70
2017-07-10T05:50:09.284Z,7.23
2017-07-10T05:52:37.099Z,6.67
2017-07-10T05:55:04.608Z,6.90
2017-07-10T05:57:32.115Z,7.90
2017-07-10T06:00:00.036Z,6.83
2017-07-10T06:02:27.764Z,7.77
2017-07-10T06:04:55.578Z,6.50
2017-07-10T06:07:23.513Z,6.77
2017-07-10T06:09:51.615Z,6.83
2017-07-10T06:12:19.127Z,5.97
2017-07-10T06:14:46.800Z,6.50
2017-07-10T06:17:14.371Z,7.17
2017-07-10T06:19:41.877Z,6.93
2017-07-10T06:22:09.432Z,7.43
2017-07-10T06:24:36.957Z,6.93
2017-07-10T06:27:04.459Z,7.10
2017-07-10T06:29:32.311Z,5.67
2017-07-10T06:31:59.859Z,5.63
2017-07-10T06:34:27.422Z,5.27
2017-07-10T06:36:54.976Z,5.83
2017-07-10T06:39:22.492Z,6.60
2017-07-10T06:44:06.784Z,7.73
2017-07-10T06:46:34.348Z,5.30
2017-07-10T06:49:01.863Z,4.23
2017-07-10T06:51:29.666Z,3.97
2017-07-10T06:53:58.025Z,4.30
2017-07-10T06:56:25.532Z,4.30
2017-07-10T06:58:53.396Z,5.57
2017-07-10T07:01:20.906Z,4.50
2017-07-10T07:03:48.438Z,5.20
2017-07-10T07:06:16.017Z,4.80
2017-07-10T07:08:43.544Z,5.50
2017-07-10T07:11:11.059Z,5.30
2017-07-10T07:13:38.864Z,5.53
2017-07-10T07:16:06.400Z,5.30
2017-07-10T07:18:33.907Z,5.23
2017-07-10T07:21:01.732Z,5.63
2017-07-10T07:23:29.244Z,4.70
2017-07-10T07:25:57.644Z,4.40
2017-07-10T07:28:25.207Z,5.30
2017-07-10T07:30:52.728Z,4.77
2017-07-10T07:33:20.243Z,4.17
2017-07-10T07:35:47.812Z,5.63
2017-07-10T07:38:15.338Z,4.50
2017-07-10T07:40:42.863Z,3.83
2017-07-10T07:43:10.752Z,4.53
2017-07-10T07:45:38.272Z,6.20
2017-07-10T07:48:05.824Z,3.83
2017-07-10T07:50:33.720Z,5.00
2017-07-10T07:53:01.563Z,4.30
2017-07-10T07:55:29.075Z,3.97
2017-07-10T07:57:56.577Z,4.10
2017-07-10T08:00:24.388Z,4.30
2017-07-10T08:02:51.892Z,4.27
2017-07-10T08:05:19.475Z,4.10
2017-07-10T08:07:46.999Z,3.60
2017-07-10T08:10:14.707Z,4.67
2017-07-10T08:12:42.244Z,3.70
2017-07-10T08:15:09.743Z,3.70
2017-07-10T08:17:37.325Z,3.70
2017-07-10T08:20:05.122Z,3.93
2017-07-10T08:22:32.687Z,4.00
2017-07-10T08:25:00.249Z,3.30
2017-07-10T08:27:27.790Z,3.87
2017-07-10T08:29:55.292Z,3.73
2017-07-10T08:32:22.832Z,4.10
2017-07-10T08:34:50.669Z,5.10
2017-07-10T08:37:18.433Z,5.10
2017-07-10T08:39:46.237Z,4.40
2017-07-10T08:42:14.037Z,4.27
2017-07-10T08:44:41.547Z,4.77
2017-07-10T08:47:09.047Z,4.57
2017-07-10T08:49:36.658Z,4.50
2017-07-10T08:52:04.208Z,5.20
2017-07-10T08:54:31.707Z,4.77
2017-07-10T08:56:59.261Z,4.77
2017-07-10T08:59:26.764Z,4.33
2017-07-10T09:01:54.368Z,4.70
2017-07-10T09:04:21.685Z,4.60
2017-07-10T09:06:49.196Z,4.40
2017-07-10T09:09:16.700Z,5.20
2017-07-10T09:11:44.364Z,5.40
2017-07-10T09:14:11.866Z,4.73
2017-07-10T09:16:39.403Z,5.60
2017-07-10T09:19:06.992Z,4.87
2017-07-10T09:21:34.547Z,5.07
2017-07-10T09:24:02.079Z,5.30
2017-07-10T09:26:29.901Z,5.50
2017-07-10T09:28:57.419Z,4.70
2017-07-10T09:31:24.979Z,5.80
2017-07-10T09:33:52.879Z,5.23
2017-07-10T09:36:21.500Z,5.77
2017-07-10T09:38:49.299Z,5.13
2017-07-10T09:41:17.237Z,5.40
2017-07-10T09:43:44.745Z,5.40
2017-07-10T09:46:12.304Z,5.00
2017-07-10T09:48:39.928Z,5.03
2017-07-10T09:51:07.615Z,5.80
2017-07-10T09:53:35.355Z,5.53
2017-07-10T09:56:03.817Z,4.37
2017-07-10T09:58:31.484Z,4.60
2017-07-10T10:01:00.383Z,6.63
2017-07-10T10:03:28.233Z,5.63
2017-07-10T10:05:56.032Z,5.60
2017-07-10T10:08:23.684Z,5.23
2017-07-10T10:10:51.440Z,5.73
2017-07-10T10:13:19.243Z,6.30
2017-07-10T10:15:46.869Z,6.00
2017-07-10T10:18:14.637Z,6.20
2017-07-10T10:20:42.432Z,5.87
2017-07-10T10:23:10.059Z,5.53
2017-07-10T10:25:37.829Z,5.80
2017-07-10T10:28:05.348Z,5.40
2017-07-10T10:30:32.939Z,5.10
2017-07-10T10:33:00.652Z,6.00
2017-07-10T10:35:28.172Z,4.67
2017-07-10T10:37:55.751Z,6.23
2017-07-10T10:40:23.311Z,5.40
2017-07-10T10:42:50.837Z,4.43
2017-07-10T10:45:18.456Z,5.10
2017-07-10T10:47:46.011Z,6.27
2017-07-10T10:50:13.519Z,6.27
2017-07-10T10:52:41.014Z,5.37
2017-07-10T10:55:08.886Z,6.00
2017-07-10T10:57:36.412Z,6.13
2017-07-10T11:00:03.943Z,6.20
2017-07-10T11:02:31.556Z,7.03
2017-07-10T11:04:59.064Z,7.00
2017-07-10T11:07:26.664Z,8.57
2017-07-10T11:09:54.241Z,7.47
2017-07-10T11:12:21.818Z,7.80
2017-07-10T11:14:49.347Z,8.73
2017-07-10T11:17:16.911Z,7.57
2017-07-10T11:19:44.418Z,7.23
2017-07-10T11:22:12.048Z,6.50
2017-07-10T11:24:39.924Z,6.37
2017-07-10T11:27:07.744Z,5.57
2017-07-10T11:29:35.256Z,5.20
2017-07-10T11:32:03.140Z,5.40
2017-07-10T11:34:30.660Z,4.47
2017-07-10T11:36:58.180Z,5.47
2017-07-10T11:39:26.084Z,4.70
2017-07-10T11:41:53.591Z,5.20
2017-07-10T11:44:21.100Z,5.40
2017-07-10T11:46:48.699Z,4.30
2017-07-10T11:49:16.207Z,4.47
2017-07-10T11:51:43.725Z,4.50
2017-07-10T11:54:11.294Z,6.03
2017-07-10T11:56:38.878Z,4.47
2017-07-10T11:59:06.406Z,5.10
2017-07-10T12:01:34.275Z,4.63
2017-07-10T12:04:01.893Z,5.90
2017-07-10T12:06:29.683Z,5.00
2017-07-10T12:08:57.572Z,5.07
2017-07-10T12:11:25.385Z,5.60
2017-07-10T12:13:55.604Z,4.30
2017-07-10T12:16:27.084Z,4.87
2017-07-10T12:19:02.876Z,6.00
2017-07-10T12:21:31.935Z,4.90
2017-07-10T12:23:59.457Z,4.90
2017-07-10T12:26:26.972Z,5.10
2017-07-10T12:28:54.969Z,5.30
2017-07-10T12:31:22.767Z,6.90
2017-07-10T12:33:50.547Z,6.63
2017-07-10T12:36:18.393Z,6.07
2017-07-10T12:38:45.984Z,6.43
2017-07-10T12:41:13.601Z,5.50
2017-07-10T12:43:41.156Z,4.80
2017-07-10T12:46:08.688Z,5.27
2017-07-10T12:48:36.208Z,5.53
2017-07-10T12:51:03.868Z,4.80
2017-07-10T12:53:31.394Z,5.10
2017-07-10T12:55:58.992Z,6.53
2017-07-10T12:58:26.639Z,5.30
2017-07-10T13:00:54.155Z,5.27
2017-07-10T13:03:21.676Z,5.53
2017-07-10T13:05:49.326Z,4.83
2017-07-10T13:08:16.801Z,6.10
2017-07-10T13:10:44.563Z,5.43
2017-07-10T13:13:12.338Z,5.20
2017-07-10T13:15:39.989Z,5.40
2017-07-10T13:18:07.700Z,5.90
2017-07-10T13:20:35.524Z,5.40
2017-07-10T13:23:03.191Z,5.90
2017-07-10T13:25:30.896Z,5.37
2017-07-10T13:27:58.676Z,5.33
2017-07-10T13:30:26.334Z,5.70
2017-07-10T13:32:54.078Z,5.90
2017-07-10T13:35:21.961Z,6.07
2017-07-10T13:37:49.552Z,5.53
2017-07-10T13:40:17.721Z,6.13
2017-07-10T13:42:45.620Z,5.60
2017-07-10T13:45:14.306Z,4.90
2017-07-10T13:47:42.585Z,5.67
2017-07-10T13:50:10.381Z,6.30
2017-07-10T13:52:38.240Z,5.80
2017-07-10T13:55:05.922Z,6.30
2017-07-10T13:57:34.107Z,4.80
2017-07-10T14:00:01.618Z,4.93
2017-07-10T14:02:29.124Z,4.93
2017-07-10T14:04:56.703Z,4.60
2017-07-10T14:07:24.221Z,5.00
2017-07-10T14:09:51.728Z,5.47
2017-07-10T14:12:19.676Z,4.70
2017-07-10T14:14:47.179Z,4.40
2017-07-10T14:17:14.697Z,3.93
2017-07-10T14:19:42.876Z,4.60
2017-07-10T14:22:10.412Z,4.60
2017-07-10T14:24:38.012Z,4.27
2017-07-10T14:27:06.175Z,4.83
2017-07-10T14:29:33.711Z,5.00
2017-07-10T14:32:01.203Z,4.03
2017-07-10T14:34:28.911Z,4.20
2017-07-10T14:36:56.415Z,3.90
2017-07-10T14:39:24.049Z,3.90
2017-07-10T14:41:51.614Z,3.77
2017-07-10T14:44:19.113Z,3.70
2017-07-10T14:46:46.629Z,3.63
2017-07-10T14:49:14.185Z,4.17
2017-07-10T14:51:41.701Z,4.13
2017-07-10T14:54:09.220Z,4.13
2017-07-10T14:56:36.827Z,4.00
2017-07-10T14:59:04.352Z,4.13
2017-07-10T15:01:31.867Z,3.90
2017-07-10T15:03:59.414Z,4.10
2017-07-10T15:06:27.167Z,4.93
2017-07-10T15:08:54.712Z,5.20
2017-07-10T15:11:22.765Z,5.40
2017-07-10T15:13:50.403Z,4.47
2017-07-10T15:16:18.117Z,5.83
2017-07-10T15:18:45.950Z,6.30
2017-07-10T15:21:13.867Z,5.77
2017-07-10T15:23:41.431Z,5.47
2017-07-10T15:26:09.022Z,5.00
2017-07-10T15:28:37.036Z,6.33
2017-07-10T15:31:04.748Z,5.53
2017-07-10T15:33:32.272Z,5.63
2017-07-10T15:36:00.222Z,5.87
2017-07-10T15:38:27.851Z,5.60
2017-07-10T15:40:55.569Z,6.10
2017-07-10T15:43:23.451Z,6.97
2017-07-10T15:45:53.836Z,6.80
2017-07-10T15:48:21.345Z,6.03
2017-07-10T15:50:49.028Z,6.73
2017-07-10T15:53:16.689Z,6.53
2017-07-10T15:55:44.423Z,5.63
2017-07-10T15:58:12.400Z,5.77
2017-07-10T16:00:39.899Z,5.57
2017-07-10T16:03:07.680Z,6.43
2017-07-10T16:05:35.470Z,5.40
2017-07-10T16:08:04.183Z,5.50
2017-07-10T16:10:32.020Z,6.07
2017-07-10T16:12:59.909Z,5.97
2017-07-10T16:15:27.806Z,5.57
2017-07-10T16:17:55.321Z,6.23
2017-07-10T16:20:23.528Z,5.53
2017-07-10T16:22:51.131Z,5.07
2017-07-10T16:25:19.668Z,5.07
2017-07-10T16:27:47.387Z,6.17
2017-07-10T16:30:14.901Z,5.40
2017-07-10T16:32:42.688Z,4.70
2017-07-10T16:35:10.895Z,4.33
2017-07-10T16:37:38.447Z,4.87
2017-07-10T16:40:06.377Z,4.70
2017-07-10T16:42:34.405Z,4.40
2017-07-10T16:45:02.012Z,4.07
2017-07-10T16:47:29.730Z,3.63
2017-07-10T16:49:57.303Z,5.20
2017-07-10T16:52:24.921Z,4.30
2017-07-10T16:54:52.504Z,4.13
2017-07-10T16:57:20.015Z,4.40
2017-07-10T16:59:47.538Z,4.00
2017-07-10T17:02:15.441Z,4.90
2017-07-10T17:04:42.945Z,4.80
2017-07-10T17:07:10.490Z,3.90
2017-07-10T17:09:38.076Z,3.90
2017-07-10T17:12:05.603Z,4.07
2017-07-10T17:14:33.109Z,4.87
2017-07-10T17:17:01.003Z,4.23
2017-07-10T17:19:28.511Z,3.70
2017-07-10T17:21:56.020Z,3.57
2017-07-10T17:24:23.596Z,4.13
2017-07-10T17:26:51.108Z,5.30
2017-07-10T17:29:18.668Z,4.70
2017-07-10T17:31:46.448Z,5.30
2017-07-10T17:34:14.011Z,4.57
2017-07-10T17:36:41.525Z,4.63
2017-07-10T17:39:09.113Z,4.57
2017-07-10T17:41:36.664Z,4.43
2017-07-10T17:44:04.354Z,4.80
2017-07-10T17:46:31.881Z,3.40
2017-07-10T17:49:00.555Z,3.70
2017-07-10T17:51:28.209Z,4.57
2017-07-10T17:53:55.748Z,4.10
2017-07-10T17:56:23.287Z,4.57
2017-07-10T17:58:51.182Z,4.50
2017-07-10T18:01:18.689Z,4.13
2017-07-10T18:03:46.199Z,3.90
2017-07-10T18:06:14.140Z,4.47
2017-07-10T18:08:41.660Z,4.90
2017-07-10T18:11:09.159Z,3.73
2017-07-10T18:13:36.996Z,4.23
2017-07-10T18:16:04.526Z,4.23
2017-07-10T18:18:32.039Z,4.37
2017-07-10T18:21:02.991Z,4.20
2017-07-10T18:23:30.575Z,4.00
2017-07-10T18:25:58.669Z,4.00
2017-07-10T18:28:26.225Z,5.43
2017-07-10T18:30:53.751Z,4.23
2017-07-10T18:33:21.661Z,4.10
2017-07-10T18:35:49.167Z,4.43
2017-07-10T18:38:16.885Z,4.00
2017-07-10T18:40:44.412Z,4.27
2017-07-10T18:43:11.914Z,4.63
2017-07-10T18:45:39.737Z,4.10
2017-07-10T18:48:07.251Z,4.40
2017-07-10T18:50:34.756Z,4.30
2017-07-10T18:53:02.587Z,3.93
2017-07-10T18:55:30.098Z,4.30
2017-07-10T18:57:57.618Z,4.00
2017-07-10T19:00:25.550Z,4.93
2017-07-10T19:02:53.065Z,6.97
2017-07-10T19:05:20.580Z,5.60
2017-07-10T19:07:48.422Z,5.40
2017-07-10T19:10:15.929Z,4.30
2017-07-10T19:12:43.456Z,4.67
2017-07-10T19:15:11.263Z,5.20
2017-07-10T19:17:38.764Z,5.03
2017-07-10T19:20:06.323Z,5.50
2017-07-10T19:22:33.936Z,5.33
2017-07-10T19:25:01.444Z,4.70
2017-07-10T19:27:28.951Z,5.17
2017-07-10T19:29:56.851Z,5.13
2017-07-10T19:32:24.385Z,4.73
2017-07-10T19:34:51.921Z,5.97
2017-07-10T19:37:19.485Z,4.97
2017-07-10T19:39:47.001Z,4.93
2017-07-10T19:42:14.504Z,6.07
2017-07-10T19:44:42.088Z,5.80
2017-07-10T19:47:09.610Z,5.50
2017-07-10T19:49:37.161Z,4.97
2017-07-10T19:52:04.721Z,5.13
2017-07-10T19:54:32.256Z,5.83
2017-07-10T19:56:59.767Z,5.30
2017-07-10T19:59:27.383Z,6.43
2017-07-10T20:01:54.913Z,5.37
2017-07-10T20:04:22.529Z,5.83
2017-07-10T20:06:50.091Z,5.53
2017-07-10T20:09:17.596Z,4.73
2017-07-10T20:11:45.124Z,4.60
2017-07-10T20:14:13.039Z,5.73
2017-07-10T20:16:40.627Z,4.77
2017-07-10T20:19:08.144Z,5.30
2017-07-10T20:21:35.825Z,4.77
2017-07-10T20:24:03.336Z,5.30
2017-07-10T20:26:30.857Z,5.97
2017-07-10T20:28:58.700Z,5.53
2017-07-10T20:31:26.213Z,5.20
2017-07-10T20:33:53.731Z,5.27
2017-07-10T20:36:21.313Z,4.63
2017-07-10T20:38:48.817Z,4.53
2017-07-10T20:41:16.385Z,4.97
2017-07-10T20:43:44.235Z,4.70
2017-07-10T20:46:11.734Z,4.97
2017-07-10T20:48:40.298Z,5.07
2017-07-10T20:51:07.807Z,4.30
2017-07-10T20:53:35.379Z,4.00
2017-07-10T20:56:05.339Z,4.70
2017-07-10T20:58:33.028Z,5.17
2017-07-10T21:01:00.904Z,4.40
2017-07-10T21:03:29.477Z,4.20
2017-07-10T21:05:57.111Z,4.17
2017-07-10T21:08:24.648Z,4.47
2017-07-10T21:10:52.495Z,4.83
2017-07-10T21:13:20.044Z,4.80
2017-07-10T21:15:47.567Z,4.87
2017-07-10T21:18:15.216Z,4.77
2017-07-10T21:20:43.105Z,4.87
2017-07-10T21:23:10.642Z,5.60
2017-07-10T21:25:38.445Z,5.63
2017-07-10T21:28:05.972Z,5.70
2017-07-10T21:30:33.488Z,5.30
2017-07-10T21:33:01.360Z,5.87
2017-07-10T21:35:28.880Z,6.57
2017-07-10T21:37:56.378Z,6.13
2017-07-10T21:40:24.039Z,6.17
2017-07-10T21:42:51.571Z,7.40
2017-07-10T21:45:19.112Z,8.50
2017-07-10T21:47:46.671Z,7.23
2017-07-10T21:50:14.194Z,7.87
2017-07-10T21:52:41.711Z,7.27
2017-07-10T21:55:09.943Z,5.17
2017-07-10T21:57:37.456Z,3.90
2017-07-10T22:00:05.013Z,3.50
2017-07-10T22:02:32.585Z,3.10
2017-07-10T22:05:00.267Z,2.70
2017-07-10T22:07:27.799Z,2.83
2017-07-10T22:09:55.466Z,4.23
2017-07-10T22:12:23.008Z,4.70
2017-07-10T22:14:50.517Z,4.00
2017-07-10T22:17:18.140Z,4.37
2017-07-10T22:19:45.655Z,4.00
2017-07-10T22:22:13.227Z,3.97
2017-07-10T22:24:41.050Z,4.60
2017-07-10T22:27:08.577Z,4.00
2017-07-10T22:29:36.215Z,4.40
2017-07-10T22:32:03.781Z,3.87
2017-07-10T22:34:31.380Z,3.93
2017-07-10T22:36:58.979Z,6.13
2017-07-10T22:39:26.884Z,4.33
2017-07-10T22:41:54.609Z,5.67
2017-07-10T22:44:22.187Z,5.20
2017-07-10T22:46:50.417Z,5.90
2017-07-10T22:49:17.925Z,5.43
2017-07-10T22:51:45.542Z,5.40
2017-07-10T22:54:13.192Z,5.00
2017-07-10T22:56:40.695Z,5.83
2017-07-10T22:59:08.209Z,6.27
2017-07-10T23:01:35.815Z,5.50
2017-07-10T23:04:03.367Z,5.93
2017-07-10T23:06:30.951Z,5.60
2017-07-10T23:08:58.580Z,8.57
2017-07-10T23:11:26.116Z,10.30
2017-07-10T23:13:53.715Z,12.20
2017-07-10T23:16:21.536Z,10.63
2017-07-10T23:18:49.067Z,8.97
2017-07-10T23:21:16.704Z,8.93
2017-07-10T23:23:44.255Z,8.37
2017-07-10T23:26:11.775Z,9.10
2017-07-10T23:28:39.315Z,7.70
2017-07-10T23:31:07.110Z,7.13
2017-07-10T23:33:34.623Z,7.30
2017-07-10T23:36:02.167Z,6.20
2017-07-10T23:38:29.992Z,5.90
2017-07-10T23:40:57.553Z,7.10
2017-07-10T23:43:25.850Z,6.17
2017-07-10T23:45:53.408Z,5.07
2017-07-10T23:48:20.917Z,4.07
2017-07-10T23:50:48.426Z,4.67
2017-07-10T23:53:16.335Z,4.37
2017-07-10T23:55:43.849Z,3.83
2017-07-10T23:58:11.423Z,4.20
